Time;durP1;ratioP1;P1;durP2;ratioP2;P2;SDS_P1;SDS_P2;PMS_P1;PMS_P2;Temp;Humidity;BMP_temperature;BMP_pressure;BME280_temperature;BME280_humidity;BME280_pressure;Samples;Min_cycle;Max_cycle;Signal;HPM_P1;HPM_P2
2023/04/08 00:00:12;;;;;;;24.05;13.82;;;;;;;6.48;62.80;99964.72;7649814;32;40046;-80
2023/04/08 00:04:30;;;;;;;24.02;13.07;;;;;;;6.54;62.58;99961.06;7631844;32;38800;-80
2023/04/08 00:08:46;;;;;;;24.92;13.18;;;;;;;6.55;62.77;99965.41;7631633;32;37217;-80
2023/04/08 00:13:03;;;;;;;21.90;12.98;;;;;;;6.68;62.45;99969.72;7631742;32;39030;-80
2023/04/08 00:17:20;;;;;;;23.70;13.80;;;;;;;6.70;62.37;99968.41;7632397;32;40562;-80
2023/04/08 00:21:36;;;;;;;22.30;12.77;;;;;;;6.48;62.68;99968.25;7642820;32;38751;-80
2023/04/08 00:25:52;;;;;;;23.20;12.98;;;;;;;6.50;62.48;99959.88;7657866;32;37200;-80
2023/04/08 00:30:09;;;;;;;19.55;12.63;;;;;;;6.54;62.36;99963.78;7657825;32;39307;-83
2023/04/08 00:34:25;;;;;;;18.05;10.52;;;;;;;6.48;62.61;99970.97;7657657;32;39621;-81
2023/04/08 00:38:42;;;;;;;17.95;10.85;;;;;;;6.35;62.36;99968.53;7655848;32;37969;-80
2023/04/08 00:42:58;;;;;;;20.60;10.65;;;;;;;6.15;62.84;99971.63;7657628;32;37282;-80
2023/04/08 00:47:15;;;;;;;16.83;10.30;;;;;;;6.34;62.59;99970.41;7655277;32;40096;-80
2023/04/08 00:51:32;;;;;;;17.40;10.00;;;;;;;6.22;62.75;99976.91;7650568;32;39677;-80
2023/04/08 00:55:48;;;;;;;20.20;10.30;;;;;;;6.34;61.99;99975.81;7657270;32;37847;-81
2023/04/08 01:00:05;;;;;;;16.87;10.02;;;;;;;6.30;62.10;99977.38;7657266;32;38015;-81
2023/04/08 01:04:36;;;;;;;16.83;10.38;;;;;;;6.25;62.24;99977.25;7655992;32;39382;-80
2023/04/08 01:08:52;;;;;;;17.25;10.25;;;;;;;6.26;62.33;99976.22;7656878;32;40596;-81
2023/04/08 01:13:11;;;;;;;17.87;10.25;;;;;;;6.23;62.42;99965.84;7656881;32;38756;-81
2023/04/08 01:17:28;;;;;;;19.33;11.02;;;;;;;6.01;62.68;99971.06;7656325;32;36238;-80
2023/04/08 01:21:44;;;;;;;19.77;10.88;;;;;;;6.08;62.91;99981.78;7655665;32;40065;-81
2023/04/08 01:26:00;;;;;;;20.88;10.50;;;;;;;6.28;62.00;99971.37;7651992;32;39991;-80
2023/04/08 01:30:20;;;;;;;18.55;10.32;;;;;;;6.46;61.50;99977.69;7648935;32;36427;-80
2023/04/08 01:34:38;;;;;;;18.48;10.88;;;;;;;6.30;61.99;99974.66;7656274;32;38054;-80
2023/04/08 01:38:55;;;;;;;19.10;10.95;;;;;;;5.90;63.15;99974.56;7656484;32;39501;-81
2023/04/08 01:43:13;;;;;;;17.98;10.68;;;;;;;6.11;63.06;99978.59;7651814;32;40774;-80
2023/04/08 01:47:30;;;;;;;20.08;10.95;;;;;;;6.25;62.26;99968.34;7631729;32;36964;-80
2023/04/08 01:51:47;;;;;;;19.95;10.35;;;;;;;5.75;62.86;99977.75;7657426;32;38027;-81
2023/04/08 01:56:10;;;;;;;17.23;10.18;;;;;;;5.61;63.55;99977.16;7654901;32;39032;-80
2023/04/08 02:00:30;;;;;;;18.48;10.00;;;;;;;5.52;64.08;99976.69;7633472;32;40924;-81
2023/04/08 02:04:46;;;;;;;18.73;10.10;;;;;;;6.00;62.28;99981.06;7633370;32;38859;-81
2023/04/08 02:09:03;;;;;;;17.70;10.65;;;;;;;5.86;62.57;99982.34;7862267;27;37982;-82
2023/04/08 02:13:21;;;;;;;17.65;9.98;;;;;;;5.32;64.84;99978.91;7632407;32;39358;-82
2023/04/08 02:17:45;;;;;;;18.33;11.02;;;;;;;5.42;64.45;99984.56;7631617;32;39329;-83
2023/04/08 02:22:09;;;;;;;21.12;11.55;;;;;;;5.79;63.77;99978.94;7643348;32;38561;-84
2023/04/08 02:26:27;;;;;;;21.33;11.27;;;;;;;5.77;63.79;99976.47;7644010;32;36976;-83
2023/04/08 02:30:50;;;;;;;22.73;12.20;;;;;;;5.84;63.56;99985.28;7643149;32;39492;-83
2023/04/08 02:35:10;;;;;;;23.02;12.93;;;;;;;5.79;63.90;99982.44;7643947;32;40010;-82
2023/04/08 02:39:32;;;;;;;21.20;12.55;;;;;;;5.83;63.79;99974.72;7643725;32;37885;-83
2023/04/08 02:43:50;;;;;;;22.15;12.50;;;;;;;5.76;64.26;99984.81;7632547;32;37181;-83
2023/04/08 02:48:09;;;;;;;22.60;11.85;;;;;;;5.78;64.66;99986.22;7633171;32;40052;-84
2023/04/08 02:52:27;;;;;;;18.92;11.40;;;;;;;5.99;63.66;99982.12;7632579;32;40134;-82
2023/04/08 02:56:44;;;;;;;21.25;11.77;;;;;;;5.85;63.64;99975.28;7631843;32;38382;-83
2023/04/08 03:01:03;;;;;;;20.50;11.05;;;;;;;5.68;64.63;99979.75;7632486;32;36690;-83
2023/04/08 03:05:21;;;;;;;23.65;11.65;;;;;;;5.83;64.04;99985.53;7643823;32;38402;-82
2023/04/08 03:09:38;;;;;;;20.77;11.90;;;;;;;5.99;63.50;99978.59;7643046;32;39982;-84
2023/04/08 03:13:58;;;;;;;22.40;12.60;;;;;;;5.79;63.92;99978.94;7632653;32;37370;-84
2023/04/08 03:18:16;;;;;;;22.62;12.45;;;;;;;6.01;63.63;99982.72;7632573;32;37242;-82
2023/04/08 03:22:33;;;;;;;22.30;13.18;;;;;;;5.90;63.76;99983.53;7632456;32;39354;-83
2023/04/08 03:26:51;;;;;;;24.55;13.60;;;;;;;5.71;64.52;99992.81;7617180;32;40194;-83
2023/04/08 03:31:09;;;;;;;26.08;13.77;;;;;;;5.62;64.79;99993.16;7606333;32;37944;-82
2023/04/08 03:35:25;;;;;;;28.98;14.93;;;;;;;5.63;64.79;99994.78;7606254;32;37187;-83
2023/04/08 03:39:44;;;;;;;27.83;14.20;;;;;;;5.65;64.37;99995.38;7606352;32;38421;-83
2023/04/08 03:44:02;;;;;;;26.30;14.13;;;;;;;5.85;64.32;99994.22;7604881;32;39570;-83
2023/04/08 03:48:20;;;;;;;24.17;13.35;;;;;;;5.85;64.62;99994.22;7623227;32;38114;-82
2023/04/08 03:52:36;;;;;;;24.60;13.73;;;;;;;5.80;64.71;99994.94;7631771;32;37948;-82
2023/04/08 03:56:55;;;;;;;23.17;13.27;;;;;;;5.93;64.16;100006.56;7631876;32;39810;-82
2023/04/08 04:01:13;;;;;;;23.75;13.00;;;;;;;5.80;64.88;100005.75;7631762;32;40342;-82
2023/04/08 04:05:29;;;;;;;23.45;13.62;;;;;;;5.95;64.10;100008.00;7631935;32;37956;-82
2023/04/08 04:09:47;;;;;;;27.60;14.48;;;;;;;6.05;63.55;100015.53;7631526;32;36556;-81
2023/04/08 04:14:06;;;;;;;22.05;13.52;;;;;;;6.07;63.61;100018.00;7642338;32;37846;-83
2023/04/08 04:18:22;;;;;;;26.02;14.13;;;;;;;6.04;63.77;100021.19;7631668;32;40838;-82
2023/04/08 04:22:40;;;;;;;23.65;13.70;;;;;;;6.12;63.61;100023.53;7631388;32;38556;-81
2023/04/08 04:26:57;;;;;;;24.60;14.77;;;;;;;6.01;64.04;100023.31;7619201;32;37238;-83
2023/04/08 04:31:22;;;;;;;25.65;14.98;;;;;;;6.13;63.69;100023.31;7631637;32;39890;-82
2023/04/08 04:35:40;;;;;;;26.92;14.32;;;;;;;6.12;64.01;100024.38;7631580;32;40753;-84
2023/04/08 04:39:58;;;;;;;25.90;14.40;;;;;;;6.13;63.86;100014.38;7631499;32;38173;-84
2023/04/08 04:44:15;;;;;;;26.98;14.43;;;;;;;6.07;64.07;100032.38;7625138;32;37964;-82
2023/04/08 04:48:36;;;;;;;27.13;15.05;;;;;;;6.05;64.11;100028.25;7630404;32;39268;-81
2023/04/08 04:52:52;;;;;;;28.92;15.20;;;;;;;6.19;63.49;100032.34;7630952;32;39919;-81
2023/04/08 04:57:10;;;;;;;25.52;13.82;;;;;;;5.97;64.26;100035.66;7630316;32;38959;-83
2023/04/08 05:01:28;;;;;;;26.67;15.13;;;;;;;6.03;64.20;100038.50;7629663;32;36609;-82
2023/04/08 05:05:49;;;;;;;26.05;14.45;;;;;;;6.18;63.33;100039.66;7641543;32;39153;-83
2023/04/08 05:10:06;;;;;;;27.15;14.27;;;;;;;6.33;63.15;100039.19;7612893;32;40786;-81
2023/04/08 05:14:27;;;;;;;29.25;14.98;;;;;;;6.21;63.29;100043.78;7623767;32;38005;-83
2023/04/08 05:18:45;;;;;;;31.77;15.63;;;;;;;6.04;64.14;100051.78;7630852;32;37992;-81
2023/04/08 05:23:01;;;;;;;29.02;15.18;;;;;;;5.93;64.62;100050.72;7631827;32;39415;-82
2023/04/08 05:27:20;;;;;;;25.92;15.13;;;;;;;5.88;65.26;100053.28;7610159;32;40356;-82
2023/04/08 05:31:37;;;;;;;29.02;15.48;;;;;;;5.98;64.66;100048.13;7624065;32;38020;-83
2023/04/08 05:35:56;;;;;;;26.05;15.13;;;;;;;6.04;64.24;100051.78;7624395;32;36695;-81
2023/04/08 05:40:12;;;;;;;28.45;15.85;;;;;;;5.96;64.98;100055.66;7632901;32;39850;-82
2023/04/08 05:44:30;;;;;;;28.42;15.25;;;;;;;6.09;64.70;100060.03;7633848;32;40310;-82
2023/04/08 05:48:48;;;;;;;30.35;15.27;;;;;;;5.71;65.85;100065.84;7618094;32;38155;-83
2023/04/08 05:53:04;;;;;;;28.23;15.25;;;;;;;5.79;65.47;100066.31;7633522;32;37089;-82
2023/04/08 05:57:22;;;;;;;37.40;18.15;;;;;;;6.03;64.53;100060.97;7632462;32;40148;-83
2023/04/08 06:01:38;;;;;;;51.35;23.75;;;;;;;6.24;64.08;100062.25;7625095;32;40791;-83
2023/04/08 06:05:55;;;;;;;34.30;17.95;;;;;;;6.08;64.72;100062.97;7607577;32;38930;-83
2023/04/08 06:10:11;;;;;;;30.83;17.45;;;;;;;6.06;64.80;100067.81;7616047;32;37246;-81
2023/04/08 06:14:29;;;;;;;33.20;17.33;;;;;;;5.93;65.13;100071.50;7633447;32;39101;-81
2023/04/08 06:18:48;;;;;;;30.55;15.82;;;;;;;6.14;64.54;100067.44;7633502;32;39541;-82
2023/04/08 06:23:04;;;;;;;29.30;15.93;;;;;;;6.22;64.94;100080.63;7633235;32;38784;-83
2023/04/08 06:27:21;;;;;;;30.42;16.08;;;;;;;6.26;64.34;100080.97;7626780;32;37197;-83
2023/04/08 06:31:38;;;;;;;31.10;16.58;;;;;;;6.35;64.21;100085.81;7633292;32;39441;-82
2023/04/08 06:36:05;;;;;;;30.73;16.58;;;;;;;5.98;65.62;100093.31;7632496;32;39914;-78
2023/04/08 06:40:22;;;;;;;28.38;15.32;;;;;;;6.06;65.49;100098.41;7633047;32;37921;-82
2023/04/08 06:44:38;;;;;;;27.25;15.60;;;;;;;6.49;63.96;100096.41;7620957;32;37219;-75
2023/04/08 06:48:55;;;;;;;27.00;14.65;;;;;;;6.25;66.11;100101.81;7607254;32;39352;-81
2023/04/08 06:53:13;;;;;;;23.77;12.98;;;;;;;6.63;65.11;100105.91;7606850;32;39554;-73
2023/04/08 06:57:32;;;;;;;24.87;13.68;;;;;;;6.75;67.38;100108.59;7606842;32;37857;-80
2023/04/08 07:01:49;;;;;;;24.05;13.35;;;;;;;6.82;63.51;100116.59;7610374;32;37058;-81
2023/04/08 07:06:05;;;;;;;25.80;13.82;;;;;;;6.73;62.99;100114.25;7629369;32;40103;-80
2023/04/08 07:10:22;;;;;;;22.75;12.98;;;;;;;6.52;64.29;100117.56;7632982;32;39956;-81
2023/04/08 07:14:40;;;;;;;27.98;14.25;;;;;;;6.41;63.66;100118.41;7632758;32;38233;-83
2023/04/08 07:18:57;;;;;;;24.23;12.75;;;;;;;6.54;63.62;100120.88;7632711;32;37944;-83
2023/04/08 07:23:13;;;;;;;24.05;13.45;;;;;;;6.68;63.47;100122.28;7632685;32;39486;-84
2023/04/08 07:27:33;;;;;;;23.38;13.00;;;;;;;6.51;63.77;100137.59;7627180;32;40409;-84
2023/04/08 07:31:51;;;;;;;23.33;13.13;;;;;;;6.77;63.00;100142.50;7632589;32;37996;-83
2023/04/08 07:36:11;;;;;;;25.85;13.82;;;;;;;6.87;62.83;100135.69;7632488;32;37900;-83
2023/04/08 07:40:27;;;;;;;24.58;13.02;;;;;;;6.32;64.72;100139.59;7631235;32;40074;-82
2023/04/08 07:44:45;;;;;;;24.42;12.48;;;;;;;6.41;65.16;100143.59;7605259;32;40778;-84
2023/04/08 07:49:01;;;;;;;22.02;12.63;;;;;;;6.24;64.91;100154.31;7613182;32;37847;-85
2023/04/08 07:53:18;;;;;;;23.85;13.02;;;;;;;6.83;63.98;100158.87;7605212;32;37116;-83
2023/04/08 07:57:38;;;;;;;24.08;12.32;;;;;;;6.76;64.57;100157.12;7606468;32;40166;-84
2023/04/08 08:01:55;;;;;;;21.10;11.75;;;;;;;6.86;63.59;100161.12;7606421;32;39930;-85
2023/04/08 08:09:07;;;;;;;26.12;14.48;;;;;;;7.62;61.77;100171.84;7828104;31;2177124;-84
2023/04/08 08:13:25;;;;;;;23.98;12.13;;;;;;;7.62;61.77;100171.84;7852612;31;40405;-84
2023/04/08 08:17:45;;;;;;;20.12;11.00;;;;;;;6.87;63.85;100182.56;7868207;31;37784;-83
2023/04/08 08:22:05;;;;;;;23.58;12.50;;;;;;;7.06;63.17;100183.25;7852878;31;37841;-83
2023/04/08 08:26:22;;;;;;;24.35;12.13;;;;;;;6.94;63.50;100179.72;7840168;32;39177;-85
2023/04/08 08:30:40;;;;;;;20.83;11.32;;;;;;;7.11;62.64;100186.06;7840345;31;39656;-86
2023/04/08 08:35:00;;;;;;;24.27;12.27;;;;;;;6.89;62.72;100185.03;7841600;31;37793;-83
2023/04/08 08:39:20;;;;;;;21.25;12.10;;;;;;;6.73;64.12;100179.28;7867726;31;37126;-85
2023/04/08 08:43:38;;;;;;;20.02;11.88;;;;;;;7.01;62.83;100187.75;7867850;31;38994;-84
2023/04/08 08:47:56;;;;;;;21.58;11.95;;;;;;;7.04;63.86;100185.38;7868456;31;39262;-84
2023/04/08 08:52:16;;;;;;;23.05;13.48;;;;;;;7.19;63.53;100187.56;7867174;31;37833;-84
2023/04/08 08:56:35;;;;;;;26.02;14.40;;;;;;;6.99;65.42;100187.16;7867394;31;37094;-84
2023/04/08 09:00:53;;;;;;;22.85;13.32;;;;;;;7.29;64.91;100192.38;7867410;31;38510;-84
2023/04/08 09:05:09;;;;;;;20.80;12.88;;;;;;;6.58;65.15;100203.31;7866749;31;39892;-83
2023/04/08 09:09:50;;;;;;;22.10;12.37;;;;;;;7.53;62.45;100201.28;7867300;31;38927;-83
2023/04/08 09:14:19;;;;;;;22.15;12.80;;;;;;;7.23;63.29;100204.22;7866401;31;37127;-85
2023/04/08 09:18:38;;;;;;;21.58;12.15;;;;;;;7.42;62.38;100215.72;7842868;31;39022;-85
2023/04/08 09:23:01;;;;;;;21.10;12.05;;;;;;;7.76;62.63;100215.81;7820445;32;39928;-84
2023/04/08 09:27:35;;;;;;;20.25;11.38;;;;;;;7.65;63.25;100228.38;7834722;31;38050;-84
2023/04/08 09:31:55;;;;;;;21.45;11.88;;;;;;;7.46;63.47;100220.41;7848138;31;36879;-85
2023/04/08 09:36:14;;;;;;;20.67;12.45;;;;;;;7.76;61.25;100227.50;7848141;31;39722;-85
2023/04/08 09:40:35;;;;;;;20.77;13.05;;;;;;;7.65;63.41;100225.66;7849486;31;39808;-83
2023/04/08 09:44:54;;;;;;;21.23;12.23;;;;;;;7.80;62.29;100225.94;7849174;31;37998;-86
2023/04/08 09:49:37;;;;;;;23.12;12.98;;;;;;;7.22;63.57;100233.19;7847395;31;37839;-85
2023/04/08 09:54:01;;;;;;;19.48;12.48;;;;;;;7.54;63.04;100227.34;7824502;31;39055;-85
2023/04/08 09:59:03;;;;;;;22.30;12.50;;;;;;;8.05;61.05;100227.47;7821228;32;40733;-85
2023/04/08 10:03:44;;;;;;;31.35;18.83;;;;;;;8.06;61.15;100231.84;7821359;32;38704;-84
2023/04/08 10:08:06;;;;;;;;;;;;;;;8.58;59.26;100226.22;7832385;31;37136;-84
2023/04/08 10:12:24;;;;;;;20.88;12.85;;;;;;;8.39;60.12;100230.22;7848379;31;39538;-83
2023/04/08 10:16:42;;;;;;;23.65;13.30;;;;;;;8.48;57.84;100233.41;7847338;31;39552;-86
2023/04/08 10:21:01;;;;;;;20.98;12.55;;;;;;;7.90;60.87;100231.56;7848793;31;37433;-84
2023/04/08 10:25:17;;;;;;;20.95;12.80;;;;;;;8.31;59.86;100236.06;7848381;31;37092;-84
2023/04/08 10:29:38;;;;;;;22.87;13.23;;;;;;;8.25;59.40;100227.84;7847001;31;39946;-85
2023/04/08 10:33:56;;;;;;;22.58;12.93;;;;;;;8.17;58.24;100230.13;7838618;31;40795;-85
2023/04/08 10:38:17;;;;;;;21.35;13.68;;;;;;;8.18;60.75;100231.78;7847054;31;38675;-81
2023/04/08 10:42:35;;;;;;;25.08;14.20;;;;;;;8.50;59.62;100220.37;7845679;31;36886;-84
2023/04/08 10:46:52;;;;;;;18.42;12.43;;;;;;;8.68;59.46;100225.56;7834905;31;39994;-85
2023/04/08 10:51:09;;;;;;;20.10;12.73;;;;;;;8.86;56.59;100229.09;7830227;31;40614;-84
2023/04/08 10:55:27;;;;;;;20.35;12.88;;;;;;;8.82;56.70;100232.28;7832419;31;37758;-84
2023/04/08 10:59:46;;;;;;;21.25;12.80;;;;;;;8.80;58.09;100236.34;7847384;31;37784;-83
2023/04/08 11:04:18;;;;;;;23.80;15.65;;;;;;;8.37;58.14;100235.91;7846375;31;39171;-83
2023/04/08 11:08:35;;;;;;;19.58;12.07;;;;;;;8.53;57.60;100233.47;7845580;31;40326;-84
2023/04/08 11:12:54;;;;;;;20.17;12.20;;;;;;;8.74;56.25;100227.28;7844109;31;38057;-85
2023/04/08 11:17:15;;;;;;;20.75;12.32;;;;;;;8.58;56.54;100220.78;7843620;31;36962;-81
2023/04/08 11:21:37;;;;;;;20.08;12.88;;;;;;;8.78;55.90;100235.78;7830210;31;38980;-83
2023/04/08 11:25:55;;;;;;;19.15;11.82;;;;;;;8.61;55.87;100228.44;7830065;31;39422;-83
2023/04/08 11:30:14;;;;;;;25.30;16.33;;;;;;;8.49;56.60;100233.16;7827349;31;37933;-82
2023/04/08 11:34:38;;;;;;;20.83;13.82;;;;;;;8.64;56.34;100230.69;7831249;31;37069;-84
2023/04/08 11:38:54;;;;;;;26.48;15.15;;;;;;;8.57;58.01;100230.03;7828647;31;40036;-83
2023/04/08 11:43:14;;;;;;;24.67;15.50;;;;;;;8.46;57.62;100233.63;7825707;31;41156;-84
2023/04/08 11:47:34;;;;;;;21.27;12.37;;;;;;;7.94;58.41;100236.53;7824881;31;38709;-81
2023/04/08 11:51:58;;;;;;;19.73;11.95;;;;;;;7.96;59.78;100240.63;7817358;32;36807;-81
2023/04/08 11:56:22;;;;;;;16.62;10.80;;;;;;;8.45;57.13;100246.41;7834056;31;39762;-84
2023/04/08 12:00:39;;;;;;;17.98;11.85;;;;;;;7.94;58.04;100247.37;7825966;31;39353;-83
2023/04/08 12:04:56;;;;;;;18.48;12.05;;;;;;;8.30;57.21;100250.75;7820670;31;39353;-86
2023/04/08 12:09:13;;;;;;;19.80;12.32;;;;;;;8.42;58.73;100246.06;7815378;32;37025;-85
2023/04/08 12:13:31;;;;;;;17.30;9.93;;;;;;;8.00;58.96;100246.38;7818653;32;38701;-85
2023/04/08 12:17:49;;;;;;;19.80;11.52;;;;;;;8.48;58.04;100246.97;7819096;32;39739;-84
2023/04/08 12:22:08;;;;;;;18.50;10.77;;;;;;;8.33;59.56;100245.62;7818438;32;37934;-86
2023/04/08 12:26:25;;;;;;;16.15;10.43;;;;;;;8.48;58.70;100241.53;7818285;32;37329;-85
2023/04/08 12:30:44;;;;;;;15.15;9.10;;;;;;;8.49;57.68;100243.22;7818222;32;39184;-86
2023/04/08 12:35:02;;;;;;;15.10;9.55;;;;;;;8.57;57.83;100230.03;7818087;32;40361;-86
2023/04/08 12:39:22;;;;;;;14.57;9.35;;;;;;;8.86;57.65;100235.34;7818021;32;37878;-85
2023/04/08 12:43:39;;;;;;;13.82;9.00;;;;;;;8.68;56.82;100238.34;7818218;32;37785;-84
2023/04/08 12:47:57;;;;;;;15.18;9.00;;;;;;;8.77;57.38;100232.22;7818339;32;39166;-84
2023/04/08 12:52:16;;;;;;;16.42;9.55;;;;;;;8.81;57.21;100227.09;7818003;32;40217;-85
2023/04/08 12:56:32;;;;;;;12.98;8.88;;;;;;;8.94;57.23;100232.19;7821415;32;37898;-85
2023/04/08 13:00:53;;;;;;;14.30;8.48;;;;;;;9.00;56.62;100238.53;7821349;32;36728;-84
2023/04/08 13:05:16;;;;;;;15.23;9.38;;;;;;;8.92;57.45;100237.06;7821115;32;39427;-85
2023/04/08 13:09:47;;;;;;;14.23;9.70;;;;;;;9.04;56.47;100236.97;7821195;32;39899;-85
2023/04/08 13:14:04;;;;;;;16.85;9.45;;;;;;;9.11;55.97;100225.91;7821108;32;37973;-87
2023/04/08 13:18:26;;;;;;;14.30;9.43;;;;;;;9.03;57.02;100230.69;7819973;32;37392;-86
2023/04/08 13:22:44;;;;;;;15.55;9.63;;;;;;;8.97;56.64;100234.41;7821315;32;39280;-86
2023/04/08 13:27:01;;;;;;;14.57;8.63;;;;;;;9.10;57.17;100233.22;7820861;32;40774;-86
2023/04/08 13:31:19;;;;;;;14.25;9.20;;;;;;;9.14;56.65;100225.38;7821317;32;37806;-86
2023/04/08 13:35:38;;;;;;;14.98;9.40;;;;;;;9.00;56.86;100228.50;7821336;32;36815;-87
2023/04/08 13:39:56;;;;;;;14.18;9.07;;;;;;;9.10;57.15;100227.78;7820779;32;38159;-86
2023/04/08 13:44:12;;;;;;;16.05;9.93;;;;;;;9.01;57.75;100223.87;7820621;32;40781;-87
2023/04/08 13:48:29;;;;;;;17.10;9.98;;;;;;;9.17;57.77;100211.28;7820746;32;38647;-85
2023/04/08 13:52:50;;;;;;;15.10;9.77;;;;;;;9.19;57.43;100218.12;7820534;32;37297;-85
2023/04/08 13:57:08;;;;;;;15.27;9.93;;;;;;;9.06;58.18;100223.13;7820692;32;39303;-86
2023/04/08 14:01:29;;;;;;;14.05;10.07;;;;;;;8.88;59.31;100225.03;7820698;32;40267;-86
2023/04/08 14:05:45;;;;;;;14.93;9.57;;;;;;;8.78;57.38;100223.00;7819767;32;37729;-85
2023/04/08 14:10:03;;;;;;;16.27;10.15;;;;;;;9.35;57.55;100219.16;7819837;32;37722;-85
2023/04/08 14:14:23;;;;;;;17.67;10.65;;;;;;;9.08;57.82;100218.25;7820137;32;39756;-85
2023/04/08 14:18:39;;;;;;;18.55;11.35;;;;;;;8.96;57.77;100219.16;7820160;32;39906;-86
2023/04/08 14:23:00;;;;;;;17.25;10.40;;;;;;;8.99;57.40;100221.38;7820273;32;37874;-85
2023/04/08 14:27:18;;;;;;;15.18;10.20;;;;;;;9.23;57.71;100226.63;7819961;32;37896;-86
2023/04/08 14:31:38;;;;;;;14.85;9.20;;;;;;;9.18;57.30;100226.53;7806515;32;38331;-86
2023/04/08 14:35:55;;;;;;;13.25;8.88;;;;;;;9.51;56.63;100227.50;7805837;32;39640;-85
2023/04/08 14:40:16;;;;;;;15.57;9.77;;;;;;;9.33;56.68;100234.91;7806491;32;36653;-84
2023/04/08 14:44:33;;;;;;;14.13;9.20;;;;;;;9.32;57.01;100224.28;7805966;32;36876;-84
2023/04/08 14:48:51;;;;;;;16.52;10.57;;;;;;;9.27;56.83;100232.38;7818771;32;39221;-84
2023/04/08 14:53:11;;;;;;;14.93;9.65;;;;;;;9.17;57.48;100239.31;7832043;31;39914;-84
2023/04/08 14:57:28;;;;;;;15.00;9.65;;;;;;;9.03;58.72;100238.03;7821407;31;37546;-84
2023/04/08 15:02:07;;;;;;;15.15;9.27;;;;;;;9.16;58.13;100229.50;7821165;31;37340;-84
2023/04/08 15:06:28;;;;;;;13.88;9.30;;;;;;;9.06;57.93;100237.53;7833811;31;37947;-85
2023/04/08 15:10:44;;;;;;;13.32;8.90;;;;;;;9.08;57.58;100240.00;7847070;31;40174;-85
2023/04/08 15:15:07;;;;;;;19.10;9.90;;;;;;;8.84;58.49;100235.56;7821446;32;37446;-83
2023/04/08 15:19:24;;;;;;;18.98;10.63;;;;;;;8.83;58.59;100235.84;7838156;31;37355;-84
2023/04/08 15:23:42;;;;;;;13.80;9.20;;;;;;;8.72;58.58;100239.47;7846560;31;38461;-83
2023/04/08 15:27:58;;;;;;;14.75;9.77;;;;;;;8.69;57.80;100240.78;7846458;31;40810;-80
2023/04/08 15:32:18;;;;;;;17.85;10.68;;;;;;;8.73;57.77;100246.56;7846421;31;37860;-83
2023/04/08 15:36:36;;;;;;;16.80;9.40;;;;;;;8.58;58.15;100244.44;7839133;31;37081;-83
2023/04/08 15:40:58;;;;;;;;;;;;;;;8.53;57.71;100256.03;7846771;31;40054;-85
2023/04/08 15:45:16;;;;;;;15.35;9.90;;;;;;;8.58;58.32;100247.97;7846245;31;40420;-84
2023/04/08 15:49:32;;;;;;;14.95;9.77;;;;;;;8.43;59.59;100259.41;7845984;31;37829;-85
2023/04/08 15:53:51;;;;;;;14.18;9.65;;;;;;;8.50;60.13;100261.13;7841568;31;36970;-86
2023/04/08 15:58:10;;;;;;;14.82;8.90;;;;;;;8.49;59.13;100265.75;7839867;31;38456;-83
2023/04/08 16:02:26;;;;;;;16.33;9.40;;;;;;;8.47;59.29;100265.19;7844683;31;39917;-82
2023/04/08 16:06:45;;;;;;;15.77;9.55;;;;;;;7.96;60.03;100270.50;7831536;31;37663;-81
2023/04/08 16:11:06;;;;;;;17.40;10.30;;;;;;;8.36;59.09;100276.91;7818317;31;36888;-80
2023/04/08 16:15:25;;;;;;;14.63;9.45;;;;;;;8.02;59.83;100274.97;7821077;31;39141;-82
2023/04/08 16:19:41;;;;;;;13.80;9.75;;;;;;;8.14;59.43;100283.06;7828938;31;39892;-83
2023/04/08 16:24:00;;;;;;;14.57;9.32;;;;;;;8.26;59.33;100282.97;7823802;31;38228;-82
2023/04/08 16:28:18;;;;;;;13.50;8.13;;;;;;;7.83;60.54;100287.91;7841450;31;37781;-81
2023/04/08 16:32:38;;;;;;;11.55;7.60;;;;;;;8.05;59.20;100287.22;7837010;31;39169;-86
2023/04/08 16:36:57;;;;;;;12.85;9.18;;;;;;;8.04;58.23;100289.13;7836454;31;39811;-82
2023/04/08 16:41:13;;;;;;;16.52;10.43;;;;;;;8.18;58.08;100294.25;7829696;31;38051;-85
2023/04/08 16:45:32;;;;;;;11.63;7.80;;;;;;;8.16;58.29;100294.50;7837702;31;36334;-85
2023/04/08 16:49:54;;;;;;;9.98;6.82;;;;;;;8.12;58.43;100303.38;7843277;31;40022;-84
2023/04/08 16:54:10;;;;;;;10.65;7.12;;;;;;;7.85;58.73;100298.53;7839374;31;40668;-80
2023/04/08 16:58:30;;;;;;;10.38;7.03;;;;;;;7.87;59.02;100299.91;7847381;31;37936;-80
2023/04/08 17:02:48;;;;;;;11.30;7.68;;;;;;;7.78;58.53;100301.37;7847885;31;39476;-82
2023/04/08 17:07:05;;;;;;;11.02;7.35;;;;;;;7.83;58.82;100304.19;7823459;31;39370;-82
2023/04/08 17:11:25;;;;;;;12.10;7.30;;;;;;;8.06;57.76;100305.16;7828082;31;39990;-85
2023/04/08 17:15:41;;;;;;;11.15;7.28;;;;;;;7.92;58.50;100303.78;7850541;31;38842;-83
2023/04/08 17:19:59;;;;;;;10.50;7.10;;;;;;;7.59;59.34;100313.44;7848767;31;38550;-83
2023/04/08 17:24:20;;;;;;;10.90;7.47;;;;;;;7.83;58.66;100323.19;7849983;31;39371;-82
2023/04/08 17:28:36;;;;;;;11.90;7.32;;;;;;;7.58;59.22;100320.75;7848158;31;40953;-80
2023/04/08 17:33:01;;;;;;;13.45;7.93;;;;;;;7.67;59.06;100323.94;7849399;31;37969;-82
2023/04/08 17:37:20;;;;;;;12.93;8.10;;;;;;;7.49;59.53;100325.72;7850486;31;37806;-85
2023/04/08 17:41:38;;;;;;;11.60;7.53;;;;;;;7.42;58.97;100333.19;7846704;31;39360;-85
2023/04/08 17:46:00;;;;;;;10.45;7.22;;;;;;;7.34;58.91;100336.25;7828844;31;39903;-82
2023/04/08 17:50:19;;;;;;;10.98;7.07;;;;;;;7.23;59.14;100343.34;7826582;31;37911;-81
2023/04/08 17:54:40;;;;;;;11.82;7.25;;;;;;;7.28;59.07;100343.44;7832570;31;36956;-83
2023/04/08 17:58:56;;;;;;;11.05;6.72;;;;;;;7.04;59.75;100358.87;7831223;31;39169;-83
2023/04/08 18:03:15;;;;;;;12.98;8.35;;;;;;;6.93;59.97;100355.09;7831854;31;41853;-81
2023/04/08 18:07:35;;;;;;;14.68;9.85;;;;;;;6.90;60.53;100357.47;7827901;31;37707;-81
2023/04/08 18:11:52;;;;;;;14.52;9.18;;;;;;;6.84;60.78;100364.62;7819812;31;37318;-82
2023/04/08 18:16:16;;;;;;;14.02;9.52;;;;;;;6.94;60.53;100361.34;7834435;31;39943;-81
2023/04/08 18:20:37;;;;;;;12.13;8.40;;;;;;;6.81;61.24;100359.66;7837940;31;41175;-81
2023/04/08 18:24:55;;;;;;;14.52;9.80;;;;;;;6.80;61.47;100374.28;7829711;31;38521;-80
2023/04/08 18:29:11;;;;;;;15.73;9.38;;;;;;;7.08;60.60;100368.19;7819577;31;37025;-81
2023/04/08 18:33:30;;;;;;;15.82;10.20;;;;;;;6.74;61.33;100369.78;7837502;31;39433;-83
2023/04/08 18:37:49;;;;;;;13.90;8.63;;;;;;;6.76;61.73;100368.50;7831934;31;40004;-82
2023/04/08 18:42:07;;;;;;;14.15;8.40;;;;;;;6.80;61.13;100373.47;7846845;31;37317;-81
2023/04/08 18:46:25;;;;;;;12.32;7.97;;;;;;;6.73;60.77;100382.50;7836012;31;38218;-85
2023/04/08 18:50:41;;;;;;;14.70;9.65;;;;;;;6.59;61.07;100383.78;7819525;32;40093;-85
2023/04/08 18:54:59;;;;;;;16.33;10.30;;;;;;;6.47;61.38;100391.03;7844247;31;41188;-85
2023/04/08 18:59:19;;;;;;;17.95;11.45;;;;;;;6.17;62.42;100389.13;7845655;31;38651;-85
2023/04/08 19:03:37;;;;;;;28.15;13.25;;;;;;;6.52;61.35;100388.44;7846859;31;37575;-84
2023/04/08 19:08:02;;;;;;;17.40;11.57;;;;;;;6.32;61.72;100403.09;7845985;31;38788;-83
2023/04/08 19:12:19;;;;;;;13.45;9.30;;;;;;;6.61;61.04;100397.91;7846666;31;40019;-81
2023/04/08 19:16:37;;;;;;;16.05;9.52;;;;;;;6.36;61.42;100400.75;7844149;31;38148;-81
2023/04/08 19:20:56;;;;;;;15.65;9.85;;;;;;;6.33;61.77;100396.63;7823145;31;37769;-81
2023/04/08 19:25:13;;;;;;;15.07;10.15;;;;;;;6.31;62.14;100398.75;7846562;31;40463;-80
2023/04/08 19:29:33;;;;;;;18.33;11.45;;;;;;;6.54;61.76;100402.63;7819011;31;39939;-80
2023/04/08 19:33:53;;;;;;;15.57;10.60;;;;;;;6.51;62.20;100405.78;7817636;32;38433;-80
2023/04/08 19:38:11;;;;;;;20.25;11.10;;;;;;;6.32;62.61;100405.81;7836855;31;36640;-80
2023/04/08 19:42:30;;;;;;;16.25;10.05;;;;;;;6.58;61.83;100406.50;7834326;31;41618;-82
2023/04/08 19:46:47;;;;;;;14.00;9.35;;;;;;;6.53;61.36;100401.75;7825188;31;40300;-80
2023/04/08 19:51:15;;;;;;;14.60;10.03;;;;;;;6.53;61.27;100406.37;7824934;31;39173;-79
2023/04/08 19:55:39;;;;;;;16.35;11.73;;;;;;;6.51;61.22;100416.59;7833971;31;36758;-80
2023/04/08 20:00:03;;;;;;;14.32;9.20;;;;;;;6.26;62.08;100414.88;7836863;31;39498;-80